Time;durP1;ratioP1;P1;durP2;ratioP2;P2;SDS_P1;SDS_P2;PMS_P1;PMS_P2;Temp;Humidity;BMP_temperature;BMP_pressure;BME280_temperature;BME280_humidity;BME280_pressure;Samples;Min_cycle;Max_cycle;Signal;HPM_P1;HPM_P2
2024/02/08 00:00:07;;;;;;;1999.90;999.90;;;5.50;99.90;;;;;;5012472;28;20946;-70
2024/02/08 00:02:33;;;;;;;1999.90;999.90;;;5.50;99.90;;;;;;5013429;28;20419;-70
2024/02/08 00:04:58;;;;;;;1999.90;999.90;;;5.50;99.90;;;;;;5013604;28;20911;-70
2024/02/08 00:07:24;;;;;;;1999.90;999.90;;;5.40;99.90;;;;;;5014343;28;20660;-70
2024/02/08 00:09:51;;;;;;;1999.90;999.90;;;5.50;99.90;;;;;;5016543;28;20205;-70
2024/02/08 00:12:16;;;;;;;1999.90;999.90;;;5.50;99.90;;;;;;5016031;28;20200;-70
2024/02/08 00:14:42;;;;;;;1999.90;999.90;;;5.50;99.90;;;;;;5015852;28;20529;-70
2024/02/08 00:17:08;;;;;;;1999.90;999.90;;;5.50;99.90;;;;;;5015833;28;20403;-70
2024/02/08 00:19:33;;;;;;;1999.90;999.90;;;5.50;99.90;;;;;;5015579;28;20224;-70
2024/02/08 00:21:59;;;;;;;1999.90;999.90;;;5.50;99.90;;;;;;5015748;28;20177;-70
2024/02/08 00:24:25;;;;;;;1999.90;999.90;;;5.60;99.90;;;;;;5015669;28;20176;-70
2024/02/08 00:26:50;;;;;;;1999.90;999.90;;;5.50;99.90;;;;;;5016476;28;20180;-70
2024/02/08 00:29:16;;;;;;;1999.90;999.90;;;5.50;99.90;;;;;;5016234;28;20280;-70
2024/02/08 00:31:42;;;;;;;1999.90;999.90;;;5.50;99.90;;;;;;5016544;28;20174;-70
2024/02/08 00:34:07;;;;;;;1999.90;999.90;;;5.50;99.90;;;;;;5016302;28;20197;-70
2024/02/08 00:36:33;;;;;;;1999.90;999.90;;;5.60;99.90;;;;;;5016448;28;20490;-70
2024/02/08 00:38:59;;;;;;;1999.90;999.90;;;5.60;99.90;;;;;;5015847;28;20240;-69
2024/02/08 00:41:24;;;;;;;1999.90;999.90;;;5.40;99.90;;;;;;5015897;28;20652;-70
2024/02/08 00:43:51;;;;;;;1999.90;999.90;;;5.40;99.90;;;;;;5015991;28;20533;-70
2024/02/08 00:46:16;;;;;;;1999.90;999.90;;;5.50;99.90;;;;;;5015985;28;20176;-70
2024/02/08 00:48:43;;;;;;;1999.90;999.90;;;5.50;99.90;;;;;;5015779;28;21012;-70
2024/02/08 00:51:10;;;;;;;1999.90;999.90;;;5.40;99.90;;;;;;5015929;28;20181;-70
2024/02/08 00:53:35;;;;;;;1999.90;999.90;;;5.40;99.90;;;;;;5015412;28;20821;-69
2024/02/08 00:56:01;;;;;;;1999.90;999.90;;;5.40;95.20;;;;;;5015360;28;20415;-69
2024/02/08 00:58:26;;;;;;;1999.90;999.90;;;5.40;99.90;;;;;;5014875;28;20232;-69
2024/02/08 01:00:53;;;;;;;1999.90;999.90;;;5.40;99.90;;;;;;5015283;28;20169;-70
2024/02/08 01:03:19;;;;;;;1999.90;999.90;;;5.40;99.90;;;;;;5015448;28;20176;-70
2024/02/08 01:05:51;;;;;;;1999.90;999.90;;;5.50;99.90;;;;;;5015286;28;20780;-70
2024/02/08 01:08:17;;;;;;;1999.90;999.90;;;5.40;99.90;;;;;;5014719;28;20605;-70
2024/02/08 01:10:42;;;;;;;1999.90;999.90;;;5.50;99.90;;;;;;5015211;28;20487;-70
2024/02/08 01:13:08;;;;;;;1999.90;999.90;;;5.30;99.90;;;;;;5015243;28;20536;-70
2024/02/08 01:15:35;;;;;;;1999.90;999.90;;;5.50;99.70;;;;;;5015107;28;20223;-69
2024/02/08 01:18:03;;;;;;;1999.90;999.90;;;5.30;99.90;;;;;;5015029;28;20541;-70
2024/02/08 01:20:29;;;;;;;1999.90;999.90;;;5.50;99.90;;;;;;5015057;28;20462;-70
2024/02/08 01:22:57;;;;;;;1999.90;999.90;;;5.50;94.30;;;;;;5014952;28;20443;-70
2024/02/08 01:25:23;;;;;;;1999.90;999.90;;;5.50;94.90;;;;;;5015142;28;20463;-70
2024/02/08 01:27:48;;;;;;;1999.90;999.90;;;5.50;94.30;;;;;;5015010;28;20415;-70
2024/02/08 01:30:14;;;;;;;1999.90;999.90;;;5.40;99.90;;;;;;5014426;28;20219;-70
2024/02/08 01:32:40;;;;;;;1999.90;999.90;;;5.50;93.90;;;;;;5015012;28;20590;-69
2024/02/08 01:35:21;;;;;;;1999.90;999.90;;;5.50;95.10;;;;;;5014290;28;20172;-70
2024/02/08 01:37:47;;;;;;;1999.90;999.90;;;5.50;92.40;;;;;;5014586;28;20403;-69
2024/02/08 01:40:16;;;;;;;1999.90;999.90;;;5.50;99.30;;;;;;5037758;23;20508;-70
2024/02/08 01:42:48;;;;;;;1999.90;999.90;;;5.50;95.20;;;;;;4994666;28;20397;-70
2024/02/08 01:45:29;;;;;;;1999.90;999.90;;;5.50;99.90;;;;;;5011972;28;20404;-70
2024/02/08 01:48:03;;;;;;;1999.90;999.90;;;5.50;78.00;;;;;;5013731;28;20437;-70
2024/02/08 01:50:50;;;;;;;1999.90;999.90;;;5.60;94.80;;;;;;5014069;28;20931;-70
2024/02/08 01:53:20;;;;;;;1999.90;999.90;;;5.50;78.20;;;;;;5013931;28;20412;-70
2024/02/08 01:55:52;;;;;;;1999.90;999.90;;;5.80;87.90;;;;;;5013948;28;20404;-70
2024/02/08 01:58:20;;;;;;;1999.90;999.90;;;5.70;99.90;;;;;;5013583;28;20435;-70
2024/02/08 02:00:49;;;;;;;1999.90;999.90;;;5.80;75.20;;;;;;5013913;28;20408;-70
2024/02/08 02:03:15;;;;;;;1999.90;999.90;;;5.50;76.70;;;;;;5013722;28;20412;-70
2024/02/08 02:05:42;;;;;;;1999.90;999.90;;;5.60;84.80;;;;;;5013799;28;20438;-70
2024/02/08 02:08:10;;;;;;;1999.90;999.90;;;5.60;99.90;;;;;;5013365;28;20551;-70
2024/02/08 02:10:37;;;;;;;1999.90;999.90;;;5.50;80.60;;;;;;5013740;28;20546;-70
2024/02/08 02:13:05;;;;;;;1999.90;999.90;;;5.60;75.40;;;;;;5013593;28;20400;-70
2024/02/08 02:15:32;;;;;;;1999.90;999.90;;;5.60;71.70;;;;;;5013586;28;20778;-71
2024/02/08 02:18:01;;;;;;;1999.90;999.90;;;5.50;93.90;;;;;;5013369;28;20400;-70
2024/02/08 02:20:30;;;;;;;1999.90;999.90;;;5.50;62.10;;;;;;5013431;28;20428;-70
2024/02/08 02:22:58;;;;;;;1999.90;999.90;;;5.50;92.70;;;;;;5013488;28;20404;-70
2024/02/08 02:25:25;;;;;;;1999.90;999.90;;;5.60;75.00;;;;;;5013362;28;20546;-70
2024/02/08 02:27:58;;;;;;;1999.90;999.90;;;5.60;65.40;;;;;;5013525;28;20941;-70
2024/02/08 02:30:26;;;;;;;1999.90;999.90;;;5.60;87.80;;;;;;5012808;28;20432;-70
2024/02/08 02:32:54;;;;;;;1999.90;999.90;;;5.60;80.90;;;;;;5013271;28;20435;-70
2024/02/08 02:35:22;;;;;;;1999.90;999.90;;;5.50;59.10;;;;;;5013248;28;20950;-70
2024/02/08 02:37:50;;;;;;;1999.90;999.90;;;5.50;64.40;;;;;;5013227;28;20392;-70
2024/02/08 02:40:23;;;;;;;1999.90;999.90;;;5.60;89.40;;;;;;5012763;28;20498;-70
2024/02/08 02:42:50;;;;;;;1999.90;999.90;;;5.60;65.00;;;;;;5013108;28;20410;-70
2024/02/08 02:45:21;;;;;;;1999.90;999.90;;;5.60;72.80;;;;;;5013166;28;20440;-70
2024/02/08 02:47:48;;;;;;;1999.90;999.90;;;5.70;55.70;;;;;;5012979;28;20435;-70
2024/02/08 02:50:17;;;;;;;1999.90;999.90;;;;;;;;;;5012613;28;20483;-70
2024/02/08 02:52:43;;;;;;;1999.90;999.90;;;5.60;55.40;;;;;;5012928;28;20428;-70
2024/02/08 02:55:09;;;;;;;1999.90;999.90;;;5.60;51.00;;;;;;5012908;28;20400;-71
2024/02/08 02:57:36;;;;;;;1999.90;999.90;;;5.60;48.20;;;;;;5012848;28;20403;-70
2024/02/08 03:00:03;;;;;;;1999.90;999.90;;;5.60;48.20;;;;;;5012518;28;20258;-71
2024/02/08 03:02:29;;;;;;;1999.90;999.90;;;5.60;49.40;;;;;;5012840;28;20454;-68
2024/02/08 03:04:54;;;;;;;1999.90;999.90;;;5.70;48.50;;;;;;5012718;28;20827;-68
2024/02/08 03:07:20;;;;;;;1999.90;999.90;;;5.70;61.20;;;;;;5012665;28;20462;-70
2024/02/08 03:09:46;;;;;;;1999.90;999.90;;;5.60;61.90;;;;;;5012304;28;20197;-69
2024/02/08 03:12:12;;;;;;;1999.90;999.90;;;5.70;55.10;;;;;;5012597;28;20396;-69
2024/02/08 03:14:57;;;;;;;1999.90;999.90;;;5.70;54.10;;;;;;5012575;28;20212;-69
2024/02/08 03:17:23;;;;;;;1999.90;999.90;;;5.60;57.80;;;;;;5012545;28;20893;-68
2024/02/08 03:19:49;;;;;;;1999.90;999.90;;;5.60;63.60;;;;;;5012629;28;20448;-68
2024/02/08 03:22:18;;;;;;;1999.90;999.90;;;5.60;65.90;;;;;;5012359;28;20988;-68
2024/02/08 03:24:44;;;;;;;1999.90;999.90;;;5.70;54.60;;;;;;5012449;28;20173;-68
2024/02/08 03:27:13;;;;;;;1999.90;999.90;;;5.50;52.70;;;;;;5012371;28;20507;-71
2024/02/08 03:29:41;;;;;;;1999.90;999.90;;;5.60;91.70;;;;;;5012037;28;20463;-68
2024/02/08 03:32:08;;;;;;;1999.90;999.90;;;5.60;41.90;;;;;;5012370;28;20490;-68
2024/02/08 03:34:35;;;;;;;1999.90;999.90;;;5.50;41.60;;;;;;5012379;28;20396;-68
2024/02/08 03:37:03;;;;;;;1999.90;999.90;;;5.60;86.90;;;;;;5012331;28;20822;-68
2024/02/08 03:39:28;;;;;;;1999.90;999.90;;;5.60;69.00;;;;;;5011798;28;20451;-69
2024/02/08 03:41:55;;;;;;;1999.90;999.90;;;5.70;91.90;;;;;;5011382;28;20422;-71
2024/02/08 03:44:21;;;;;;;1999.90;999.90;;;5.50;83.60;;;;;;5012227;28;20595;-69
2024/02/08 03:46:50;;;;;;;1999.90;999.90;;;5.50;86.30;;;;;;5012138;28;20443;-68
2024/02/08 03:49:15;;;;;;;1999.90;999.90;;;5.50;99.90;;;;;;5011821;28;20204;-68
2024/02/08 03:51:42;;;;;;;1999.90;999.90;;;5.40;99.90;;;;;;5012121;28;20420;-68
2024/02/08 03:54:08;;;;;;;1999.90;999.90;;;5.40;99.90;;;;;;5012054;28;20223;-69
2024/02/08 03:56:37;;;;;;;1999.90;999.90;;;5.40;99.90;;;;;;5012106;28;20934;-68
2024/02/08 03:59:07;;;;;;;1999.90;999.90;;;5.40;99.90;;;;;;5011687;28;20911;-69
2024/02/08 04:01:33;;;;;;;1999.90;999.90;;;5.30;99.90;;;;;;5012298;28;20501;-69
2024/02/08 04:04:12;;;;;;;1999.90;999.90;;;;;;;;;;5011883;28;20407;-71
2024/02/08 04:06:49;;;;;;;1999.90;999.90;;;5.40;99.90;;;;;;5012032;28;20422;-69
2024/02/08 04:09:33;;;;;;;1999.90;999.90;;;5.20;99.90;;;;;;5011575;28;20467;-69
2024/02/08 04:55:56;;;;;;;1999.90;999.90;;;5.60;99.90;;;;;;5015908;28;20978;-72
2024/02/08 04:58:21;;;;;;;1999.90;999.90;;;5.40;99.90;;;;;;5015293;28;20784;-69
2024/02/08 05:00:47;;;;;;;1999.90;999.90;;;;;;;;;;5015616;28;20400;-71
2024/02/08 05:03:16;;;;;;;1999.90;999.90;;;5.60;99.90;;;;;;5015472;28;20195;-71
2024/02/08 05:05:43;;;;;;;1999.90;999.90;;;5.50;99.90;;;;;;5015149;28;20404;-71
2024/02/08 05:08:10;;;;;;;1999.90;999.90;;;5.60;99.90;;;;;;5014742;28;20400;-71
2024/02/08 05:10:36;;;;;;;1999.90;999.90;;;5.50;99.90;;;;;;5015208;28;20792;-71
2024/02/08 05:13:04;;;;;;;1999.90;999.90;;;5.50;99.90;;;;;;5014903;28;20404;-71
2024/02/08 05:15:30;;;;;;;1999.90;999.90;;;5.50;99.90;;;;;;5014932;28;20165;-71
2024/02/08 05:17:56;;;;;;;1999.90;999.90;;;5.60;99.90;;;;;;5014718;28;20412;-71
2024/02/08 05:20:21;;;;;;;1999.90;999.90;;;5.60;99.90;;;;;;5014940;28;20494;-71
2024/02/08 05:22:48;;;;;;;1999.90;999.90;;;5.60;99.90;;;;;;5014716;28;20173;-71
2024/02/08 05:25:14;;;;;;;1999.90;999.90;;;5.60;99.90;;;;;;5014937;28;20692;-71
2024/02/08 05:27:39;;;;;;;1999.90;999.90;;;5.70;99.90;;;;;;5014914;28;20448;-72
2024/02/08 05:30:05;;;;;;;1999.90;999.90;;;5.60;99.90;;;;;;5014836;28;20487;-71
2024/02/08 05:32:33;;;;;;;1999.90;999.90;;;5.60;99.90;;;;;;5015069;28;20554;-71
2024/02/08 05:35:02;;;;;;;1999.90;999.90;;;;;;;;;;5015156;28;20412;-72
2024/02/08 05:37:29;;;;;;;1999.90;999.90;;;5.60;99.90;;;;;;5015141;28;20467;-71
2024/02/08 05:39:57;;;;;;;1999.90;999.90;;;5.50;99.90;;;;;;5014642;28;20539;-71
2024/02/08 05:42:24;;;;;;;1999.90;999.90;;;5.50;99.90;;;;;;5015038;28;20423;-71
2024/02/08 05:44:50;;;;;;;1999.90;999.90;;;5.50;99.90;;;;;;5014927;28;20969;-71
2024/02/08 05:47:25;;;;;;;1999.90;999.90;;;5.40;99.90;;;;;;5013732;28;20426;-71
2024/02/08 05:49:52;;;;;;;1999.90;999.90;;;5.50;99.90;;;;;;5014506;28;20463;-71
2024/02/08 05:52:18;;;;;;;1999.90;999.90;;;5.50;99.90;;;;;;5014916;28;20409;-71
2024/02/08 05:54:45;;;;;;;1999.90;999.90;;;5.50;99.90;;;;;;5013251;28;20412;-71
2024/02/08 05:57:12;;;;;;;1999.90;999.90;;;;;;;;;;5014594;28;20411;-71
2024/02/08 05:59:39;;;;;;;1999.90;999.90;;;5.50;99.90;;;;;;5014052;28;20443;-71
2024/02/08 06:02:14;;;;;;;1999.90;999.90;;;7.20;99.90;;;;;;5014221;28;20414;-70
2024/02/08 06:04:50;;;;;;;1999.90;999.90;;;5.50;99.90;;;;;;5013222;28;20503;-71
2024/02/08 06:07:17;;;;;;;1999.90;999.90;;;5.50;99.90;;;;;;5013883;28;20415;-70
2024/02/08 06:12:20;;;;;;;1999.90;999.90;;;5.40;99.90;;;;;;5013965;28;20444;-70
2024/02/08 06:14:46;;;;;;;1999.90;999.90;;;5.50;99.90;;;;;;5013671;28;20406;-71
2024/02/08 06:17:23;;;;;;;1999.90;999.90;;;5.50;99.90;;;;;;5013718;28;20530;-71
2024/02/08 06:19:52;;;;;;;1999.90;999.90;;;5.40;99.90;;;;;;5013348;28;20506;-69
2024/02/08 06:22:22;;;;;;;1999.90;999.90;;;5.40;99.90;;;;;;5013658;28;20407;-71
2024/02/08 06:24:48;;;;;;;1999.90;999.90;;;5.50;99.90;;;;;;5013599;28;20420;-71
2024/02/08 06:27:14;;;;;;;1999.90;999.90;;;5.60;99.90;;;;;;5013492;28;20404;-71
2024/02/08 06:29:46;;;;;;;1999.90;999.90;;;5.40;99.90;;;;;;5013137;28;21028;-71
2024/02/08 06:32:43;;;;;;;1999.90;999.90;;;5.40;99.90;;;;;;5013610;28;20169;-71
2024/02/08 06:35:08;;;;;;;1999.90;999.90;;;5.50;99.90;;;;;;5012893;28;20924;-69
2024/02/08 06:37:44;;;;;;;1999.90;999.90;;;5.50;99.90;;;;;;5013273;28;20949;-69
2024/02/08 06:40:21;;;;;;;1999.90;999.90;;;5.50;99.90;;;;;;5012838;28;20877;-69
2024/02/08 07:37:18;;;;;;;1999.90;999.90;;;5.50;99.90;;;;;;4992743;28;20492;-70
2024/02/08 07:39:53;;;;;;;1999.90;999.90;;;5.60;99.90;;;;;;5007676;28;20456;-69
2024/02/08 07:45:14;;;;;;;1999.90;999.90;;;5.60;99.90;;;;;;4991942;28;20455;-69
2024/02/08 07:47:40;;;;;;;1999.90;999.90;;;5.60;99.90;;;;;;4992717;28;20408;-69
2024/02/08 07:50:09;;;;;;;1999.90;999.90;;;5.60;99.90;;;;;;4992092;28;20545;-70
2024/02/08 07:52:45;;;;;;;1999.90;999.90;;;5.60;99.90;;;;;;4992413;28;20916;-70
2024/02/08 07:55:20;;;;;;;1999.90;999.90;;;5.60;99.90;;;;;;4992464;28;20436;-70
2024/02/08 07:57:57;;;;;;;1999.90;999.90;;;5.60;99.90;;;;;;4992638;28;20409;-69
2024/02/08 08:00:41;;;;;;;1999.90;999.90;;;5.70;99.90;;;;;;4992438;28;20427;-69
2024/02/08 08:03:08;;;;;;;1999.90;999.90;;;5.70;99.90;;;;;;4992233;28;20437;-69
2024/02/08 08:05:42;;;;;;;1999.90;999.90;;;5.70;99.90;;;;;;4992312;28;20527;-70
2024/02/08 08:11:02;;;;;;;1999.90;999.90;;;5.80;99.90;;;;;;4992642;28;20471;-68
2024/02/08 08:19:08;;;;;;;1999.90;999.90;;;6.00;99.90;;;;;;4992111;28;20429;-68
2024/02/08 08:24:26;;;;;;;1999.90;999.90;;;6.10;99.90;;;;;;4991526;28;20408;-68
2024/02/08 08:27:07;;;;;;;1999.90;999.90;;;6.30;99.90;;;;;;4992199;28;20931;-68
2024/02/08 08:29:42;;;;;;;1999.90;999.90;;;6.20;99.90;;;;;;4995046;28;20997;-68
2024/02/08 08:38:44;;;;;;;1999.90;999.90;;;6.20;99.90;;;;;;4996219;28;20803;-71
2024/02/08 08:40:38;;;;;;;1999.90;999.90;;;6.10;99.90;;;;;;4995163;28;20421;-71
2024/02/08 08:43:10;;;;;;;1999.90;999.90;;;6.20;99.90;;;;;;4995751;28;20769;-68
2024/02/08 08:45:36;;;;;;;1999.90;999.90;;;6.20;99.90;;;;;;4995856;28;20451;-70
2024/02/08 08:48:02;;;;;;;1999.90;999.90;;;6.20;99.90;;;;;;4995446;28;20401;-68
2024/02/08 08:50:31;;;;;;;1999.90;999.90;;;6.20;99.90;;;;;;4995534;28;20457;-68
2024/02/08 08:53:07;;;;;;;1999.90;999.90;;;6.20;99.90;;;;;;4995581;28;20412;-68
2024/02/08 08:55:36;;;;;;;1999.90;999.90;;;6.40;99.90;;;;;;4995931;28;20911;-68
2024/02/08 08:58:04;;;;;;;1999.90;999.90;;;6.30;99.90;;;;;;4995312;28;20429;-68
2024/02/08 09:00:32;;;;;;;1999.90;999.90;;;6.30;99.90;;;;;;4995313;28;20432;-68
2024/02/08 09:03:04;;;;;;;1999.90;999.90;;;6.30;99.90;;;;;;4995368;28;20409;-67
2024/02/08 09:05:30;;;;;;;1999.90;999.90;;;6.30;99.90;;;;;;4995362;28;20412;-70
2024/02/08 09:08:00;;;;;;;1999.90;999.90;;;6.30;99.90;;;;;;4995163;28;20924;-68
2024/02/08 09:10:34;;;;;;;1999.90;999.90;;;6.40;99.90;;;;;;4995145;28;20452;-68
2024/02/08 09:13:07;;;;;;;1999.90;999.90;;;6.40;99.90;;;;;;4995297;28;20492;-68
2024/02/08 09:15:47;;;;;;;1999.90;999.90;;;6.40;99.90;;;;;;4995271;28;20393;-69
2024/02/08 09:18:15;;;;;;;1999.90;999.90;;;6.40;99.90;;;;;;4994819;28;20403;-68
2024/02/08 09:20:42;;;;;;;1999.90;999.90;;;6.40;99.90;;;;;;4995271;28;20754;-68
2024/02/08 09:23:15;;;;;;;1999.90;999.90;;;6.40;99.90;;;;;;4995214;28;20441;-68
2024/02/08 09:25:45;;;;;;;1999.90;999.90;;;6.50;99.90;;;;;;4995083;28;20540;-68
2024/02/08 09:28:24;;;;;;;1999.90;999.90;;;6.50;99.90;;;;;;4994593;28;20530;-68
2024/02/08 09:30:53;;;;;;;1999.90;999.90;;;6.40;99.90;;;;;;4994995;28;20405;-68
2024/02/08 09:33:35;;;;;;;1999.90;999.90;;;6.40;99.90;;;;;;4994876;28;20409;-69
2024/02/08 09:36:02;;;;;;;1999.90;999.90;;;6.40;99.90;;;;;;4994891;28;20397;-69
2024/02/08 09:38:29;;;;;;;1999.90;999.90;;;6.40;99.90;;;;;;4994263;28;20797;-68
2024/02/08 09:41:01;;;;;;;1999.90;999.90;;;6.40;99.90;;;;;;4992398;28;20408;-70
2024/02/08 09:43:30;;;;;;;1999.90;999.90;;;6.30;99.90;;;;;;4993742;28;20405;-69
2024/02/08 09:46:05;;;;;;;1999.90;999.90;;;6.40;99.90;;;;;;4993589;28;20405;-68
2024/02/08 09:48:43;;;;;;;1999.90;999.90;;;6.50;99.90;;;;;;4993240;28;20955;-68
2024/02/08 09:51:22;;;;;;;1999.90;999.90;;;6.40;99.90;;;;;;4993592;28;20428;-69
2024/02/08 09:53:52;;;;;;;1999.90;999.90;;;6.50;99.90;;;;;;4993590;28;20408;-67
2024/02/08 09:56:49;;;;;;;1999.90;999.90;;;6.40;99.90;;;;;;4993448;28;20401;-69
2024/02/08 09:59:40;;;;;;;1999.90;999.90;;;6.40;46.20;;;;;;4993144;28;20431;-69
2024/02/08 10:02:20;;;;;;;1999.90;999.90;;;6.40;48.10;;;;;;4993317;28;20511;-69
2024/02/08 10:04:49;;;;;;;1999.90;999.90;;;6.40;47.10;;;;;;4993395;28;20407;-69
2024/02/08 10:07:19;;;;;;;1999.90;999.90;;;6.30;62.00;;;;;;4993340;28;20496;-69
2024/02/08 10:09:47;;;;;;;1999.90;999.90;;;6.30;91.50;;;;;;4992912;28;20587;-69
2024/02/08 10:12:20;;;;;;;1999.90;999.90;;;6.30;99.90;;;;;;4993174;28;20429;-69
2024/02/08 10:14:54;;;;;;;1999.90;999.90;;;6.30;99.90;;;;;;4993233;28;20785;-69
2024/02/08 10:23:09;;;;;;;1999.90;999.90;;;6.40;99.90;;;;;;4993113;28;20409;-69
2024/02/08 10:28:25;;;;;;;1999.90;999.90;;;6.60;99.90;;;;;;4992589;28;20488;-68
2024/02/08 10:30:59;;;;;;;1999.90;999.90;;;6.70;99.90;;;;;;4992844;28;20475;-68
2024/02/08 10:33:29;;;;;;;1999.90;999.90;;;6.70;99.90;;;;;;4992911;28;20436;-68
2024/02/08 10:36:07;;;;;;;1999.90;999.90;;;6.80;99.90;;;;;;4992878;28;20405;-68
2024/02/08 10:38:55;;;;;;;1999.90;999.90;;;6.60;99.90;;;;;;4955608;28;1075625;-68
2024/02/08 10:41:19;;;;;;;1999.90;999.90;;;6.60;99.90;;;;;;4993447;28;20224;-68
2024/02/08 10:43:58;;;;;;;1999.90;999.90;;;6.60;99.90;;;;;;4993558;28;20432;-68
2024/02/08 10:46:31;;;;;;;1999.90;999.90;;;6.50;99.90;;;;;;4993600;28;20417;-68
2024/02/08 10:49:08;;;;;;;1999.90;999.90;;;6.30;99.90;;;;;;4993186;28;20464;-68
2024/02/08 10:51:36;;;;;;;1999.90;999.90;;;6.50;99.90;;;;;;4992997;28;20769;-70
2024/02/08 10:54:08;;;;;;;1999.90;999.90;;;6.60;99.90;;;;;;4993379;28;20497;-68
2024/02/08 10:56:41;;;;;;;1999.90;999.90;;;6.50;99.90;;;;;;4993433;28;20409;-68
2024/02/08 10:59:09;;;;;;;1999.90;999.90;;;6.50;99.90;;;;;;4993113;28;20438;-68
2024/02/08 11:04:28;;;;;;;1999.90;999.90;;;6.50;99.90;;;;;;4992842;28;20511;-71
2024/02/08 11:06:58;;;;;;;1999.90;999.90;;;7.20;99.90;;;;;;4991874;28;20789;-71
2024/02/08 11:09:27;;;;;;;1999.90;999.90;;;6.50;99.90;;;;;;4991839;28;20465;-68
2024/02/08 11:12:09;;;;;;;1999.90;999.90;;;6.50;99.90;;;;;;4992736;28;20471;-71
2024/02/08 11:14:45;;;;;;;1999.90;999.90;;;6.40;99.90;;;;;;4992872;28;20935;-71
2024/02/08 11:17:22;;;;;;;1999.90;999.90;;;6.60;99.90;;;;;;4987859;28;20698;-70
2024/02/08 11:19:57;;;;;;;1999.90;999.90;;;6.50;99.90;;;;;;4996552;28;20516;-71
2024/02/08 11:22:39;;;;;;;1999.90;999.90;;;6.50;99.90;;;;;;4995236;28;20419;-71
2024/02/08 11:25:19;;;;;;;1999.90;999.90;;;6.00;99.90;;;;;;5002431;28;20424;-68
2024/02/08 11:27:52;;;;;;;1999.90;999.90;;;6.50;99.90;;;;;;5001616;28;20920;-68
2024/02/08 11:30:32;;;;;;;1999.90;999.90;;;6.60;99.90;;;;;;4992346;28;20827;-69
2024/02/08 11:33:03;;;;;;;1999.90;999.90;;;6.70;99.90;;;;;;4992404;28;20405;-69
2024/02/08 11:35:45;;;;;;;1999.90;999.90;;;6.60;99.90;;;;;;4992915;28;20405;-69
2024/02/08 11:38:21;;;;;;;1999.90;999.90;;;7.00;99.90;;;;;;4992804;28;20943;-70
2024/02/08 11:40:47;;;;;;;1999.90;999.90;;;6.90;99.90;;;;;;4993794;28;20420;-68
2024/02/08 11:43:23;;;;;;;1999.90;999.90;;;7.00;99.90;;;;;;4994654;28;20409;-69
2024/02/08 11:45:54;;;;;;;1999.90;999.90;;;7.20;99.90;;;;;;4993444;28;20417;-70
2024/02/08 11:48:41;;;;;;;1999.90;999.90;;;7.10;99.90;;;;;;4993169;28;20413;-70
2024/02/08 11:51:11;;;;;;;1999.90;999.90;;;7.20;99.90;;;;;;4995163;28;20472;-69
2024/02/08 11:53:39;;;;;;;1999.90;999.90;;;7.30;99.90;;;;;;4993860;28;20405;-68
2024/02/08 11:56:08;;;;;;;1999.90;999.90;;;7.10;99.90;;;;;;4991897;28;20436;-67
2024/02/08 11:58:43;;;;;;;1999.90;999.90;;;7.40;99.90;;;;;;4991104;28;20422;-68
2024/02/08 12:01:16;;;;;;;1999.90;999.90;;;7.50;99.90;;;;;;4991807;28;20777;-68
2024/02/08 12:03:43;;;;;;;1999.90;999.90;;;7.60;99.90;;;;;;4994263;28;20983;-67
2024/02/08 12:06:23;;;;;;;1999.90;999.90;;;7.60;99.90;;;;;;4996154;28;20409;-67
2024/02/08 12:08:59;;;;;;;1999.90;999.90;;;7.60;99.90;;;;;;4994959;28;20455;-69
2024/02/08 12:11:35;;;;;;;1999.90;999.90;;;7.80;99.90;;;;;;4996154;28;20901;-69
2024/02/08 12:14:06;;;;;;;1999.90;999.90;;;7.60;99.90;;;;;;4996085;28;20401;-68
2024/02/08 12:16:38;;;;;;;1999.90;999.90;;;7.70;99.90;;;;;;4995808;28;20452;-68
2024/02/08 12:19:09;;;;;;;1999.90;999.90;;;7.70;99.90;;;;;;4995229;28;20463;-71
2024/02/08 12:21:35;;;;;;;1999.90;999.90;;;7.80;99.90;;;;;;4995706;28;20417;-71
2024/02/08 12:24:03;;;;;;;1999.90;999.90;;;7.80;99.90;;;;;;4996018;28;20416;-68
2024/02/08 12:26:33;;;;;;;1999.90;999.90;;;7.80;99.90;;;;;;4995740;28;20475;-68
2024/02/08 12:29:03;;;;;;;1999.90;999.90;;;7.70;99.90;;;;;;4994933;28;20992;-69
2024/02/08 12:31:33;;;;;;;1999.90;999.90;;;7.80;99.90;;;;;;5001210;28;20428;-71
2024/02/08 12:34:03;;;;;;;1999.90;999.90;;;7.90;99.90;;;;;;5000079;28;20390;-71
2024/02/08 12:36:31;;;;;;;1999.90;999.90;;;7.80;99.90;;;;;;4998828;28;20436;-71
2024/02/08 12:39:00;;;;;;;1999.90;999.90;;;8.40;99.90;;;;;;4994611;28;20464;-69
2024/02/08 12:41:26;;;;;;;1999.90;999.90;;;8.20;99.90;;;;;;4995826;28;20556;-69
2024/02/08 12:43:52;;;;;;;1999.90;999.90;;;8.20;99.90;;;;;;4995279;28;20447;-70
2024/02/08 12:46:20;;;;;;;1999.90;999.90;;;8.40;99.90;;;;;;4995421;28;20516;-69
2024/02/08 12:48:49;;;;;;;1999.90;999.90;;;8.40;99.90;;;;;;4994824;28;20461;-69
2024/02/08 12:51:23;;;;;;;1999.90;999.90;;;8.50;99.90;;;;;;4995209;28;20557;-68
2024/02/08 12:54:02;;;;;;;1999.90;999.90;;;8.60;99.90;;;;;;4995522;28;20417;-70
2024/02/08 12:56:27;;;;;;;1999.90;999.90;;;8.60;99.90;;;;;;5010441;28;20504;-69
2024/02/08 12:59:03;;;;;;;1999.90;999.90;;;8.80;99.90;;;;;;4994385;28;20531;-70
2024/02/08 13:01:39;;;;;;;1999.90;999.90;;;8.70;99.90;;;;;;4995332;28;20257;-69
2024/02/08 13:04:08;;;;;;;1999.90;999.90;;;8.80;99.90;;;;;;4995438;28;20425;-69
2024/02/08 13:06:34;;;;;;;1999.90;999.90;;;8.70;99.90;;;;;;4994897;28;20754;-70
2024/02/08 13:12:17;;;;;;;1999.90;999.90;;;8.90;68.40;;;;;;4995766;28;20414;-70
2024/02/08 13:14:49;;;;;;;1999.90;999.90;;;8.80;45.70;;;;;;4996606;28;20427;-69
2024/02/08 13:17:25;;;;;;;1999.90;999.90;;;8.70;15.70;;;;;;4997226;28;20520;-69
2024/02/08 13:19:55;;;;;;;1999.90;999.90;;;9.00;32.20;;;;;;4997115;28;21109;-68
2024/02/08 13:22:24;;;;;;;1999.90;999.90;;;8.80;31.30;;;;;;4997050;28;20420;-70
2024/02/08 13:24:53;;;;;;;1999.90;999.90;;;8.80;56.90;;;;;;4997040;28;20419;-70
2024/02/08 13:27:24;;;;;;;1999.90;999.90;;;8.80;38.90;;;;;;4997005;28;20454;-70
2024/02/08 13:29:53;;;;;;;1999.90;999.90;;;8.90;38.80;;;;;;4995570;28;20466;-70
2024/02/08 13:32:19;;;;;;;1999.90;999.90;;;8.90;34.50;;;;;;4996722;28;20834;-70
2024/02/08 13:34:44;;;;;;;1999.90;999.90;;;8.90;1.00;;;;;;4996530;28;20415;-70
2024/02/08 13:37:15;;;;;;;1999.90;999.90;;;8.90;1.00;;;;;;4996615;28;20406;-71
2024/02/08 13:39:44;;;;;;;1999.90;999.90;;;8.90;1.00;;;;;;4995553;28;20219;-70
2024/02/08 13:44:38;;;;;;;1999.90;999.90;;;8.80;1.00;;;;;;4973368;28;20955;-68
2024/02/08 13:47:04;;;;;;;1999.90;999.90;;;8.90;8.60;;;;;;4974761;28;20419;-69
2024/02/08 13:49:33;;;;;;;1999.90;999.90;;;8.90;7.60;;;;;;4974272;28;20460;-68
2024/02/08 13:52:04;;;;;;;1999.90;999.90;;;9.00;1.00;;;;;;4974155;28;20416;-68
2024/02/08 13:54:31;;;;;;;1999.90;999.90;;;9.10;1.00;;;;;;4955656;29;20508;-69
2024/02/08 13:56:59;;;;;;;1999.90;999.90;;;9.00;1.00;;;;;;4955765;28;20411;-69
2024/02/08 13:59:29;;;;;;;1999.90;999.90;;;8.90;1.00;;;;;;4954502;29;20470;-71
2024/02/08 14:01:54;;;;;;;1999.90;999.90;;;8.80;9.20;;;;;;4955630;28;20417;-69
2024/02/08 14:04:23;;;;;;;1999.90;999.90;;;9.00;23.20;;;;;;4955447;28;20932;-69
2024/02/08 14:06:55;;;;;;;1999.90;999.90;;;9.20;36.70;;;;;;4954901;28;20178;-69
2024/02/08 14:09:24;;;;;;;1999.90;999.90;;;9.00;82.00;;;;;;4954711;29;20517;-69
2024/02/08 14:11:55;;;;;;;1999.90;999.90;;;8.80;97.60;;;;;;4955234;29;20419;-68
2024/02/08 14:14:31;;;;;;;1999.90;999.90;;;8.80;99.90;;;;;;4955024;28;20430;-68
2024/02/08 14:16:58;;;;;;;1999.90;999.90;;;8.90;99.90;;;;;;4955306;29;20550;-68
2024/02/08 14:19:33;;;;;;;1999.90;999.90;;;9.00;99.90;;;;;;4954706;28;20424;-69
2024/02/08 14:22:08;;;;;;;1999.90;999.90;;;8.90;99.90;;;;;;4954890;29;20497;-68
2024/02/08 14:24:40;;;;;;;1999.90;999.90;;;8.80;99.90;;;;;;4955274;28;20397;-68
2024/02/08 14:27:06;;;;;;;1999.90;999.90;;;8.80;99.90;;;;;;4954125;28;20981;-69
2024/02/08 14:29:37;;;;;;;1999.90;999.90;;;8.70;99.90;;;;;;4953661;29;20451;-68
2024/02/08 14:32:04;;;;;;;1999.90;999.90;;;8.70;99.90;;;;;;4954901;28;20256;-68
2024/02/08 14:34:36;;;;;;;1999.90;999.90;;;8.80;99.90;;;;;;4954854;28;20754;-70
2024/02/08 14:37:05;;;;;;;1999.90;999.90;;;8.90;99.90;;;;;;4954485;29;20838;-68
2024/02/08 14:39:35;;;;;;;1999.90;999.90;;;8.80;99.90;;;;;;4954220;28;20902;-68
2024/02/08 14:42:17;;;;;;;1999.90;999.90;;;8.70;99.90;;;;;;4954918;28;20419;-69